createdAt,value
2019-04-06T00:00:38.697Z,99.90
2019-04-06T00:03:09.180Z,99.90
2019-04-06T00:05:39.882Z,99.90
2019-04-06T00:08:10.347Z,99.90
2019-04-06T00:10:40.821Z,99.90
2019-04-06T00:13:11.424Z,99.90
2019-04-06T00:15:41.878Z,99.90
2019-04-06T00:18:12.303Z,99.90
2019-04-06T00:20:43.054Z,99.90
2019-04-06T00:23:13.524Z,99.90
2019-04-06T00:25:44.988Z,99.90
2019-04-06T00:28:15.608Z,99.90
2019-04-06T00:31:20.039Z,99.90
2019-04-06T00:33:50.548Z,99.90
2019-04-06T00:36:21.233Z,99.90
2019-04-06T00:38:51.589Z,99.90
2019-04-06T00:41:22.029Z,99.90
2019-04-06T00:43:52.462Z,99.90
2019-04-06T00:46:22.918Z,99.90
2019-04-06T00:48:53.385Z,99.90
2019-04-06T00:51:25.610Z,99.90
2019-04-06T00:53:56.015Z,99.90
2019-04-06T00:56:26.677Z,99.90
2019-04-06T00:58:57.112Z,99.90
2019-04-06T01:01:27.679Z,99.90
2019-04-06T01:03:58.242Z,99.90
2019-04-06T01:06:28.665Z,99.90
2019-04-06T01:08:59.122Z,99.90
2019-04-06T01:11:30.625Z,99.90
2019-04-06T01:14:01.044Z,99.90
2019-04-06T01:16:31.504Z,99.90
2019-04-06T01:19:02.366Z,99.90
2019-04-06T01:21:32.842Z,99.90
2019-04-06T01:24:03.718Z,99.90
2019-04-06T01:26:34.211Z,99.90
2019-04-06T01:29:04.775Z,99.90
2019-04-06T01:31:35.448Z,99.90
2019-04-06T01:34:06.208Z,99.90
2019-04-06T01:36:36.672Z,99.90
2019-04-06T01:39:08.153Z,99.90
2019-04-06T01:41:38.596Z,99.90
2019-04-06T01:44:09.556Z,99.90
2019-04-06T01:46:39.958Z,99.90
2019-04-06T01:49:10.692Z,99.90
2019-04-06T01:51:41.189Z,99.90
2019-04-06T01:54:11.671Z,99.90
2019-04-06T01:56:42.276Z,99.90
2019-04-06T01:59:12.766Z,99.90
2019-04-06T02:02:05.346Z,99.90
2019-04-06T02:04:35.797Z,99.90
2019-04-06T02:07:06.488Z,99.90
2019-04-06T02:09:36.940Z,99.90
2019-04-06T02:12:07.384Z,99.90
2019-04-06T02:14:38.197Z,99.90
2019-04-06T02:17:08.784Z,99.90
2019-04-06T02:19:39.440Z,99.90
2019-04-06T02:22:10.220Z,99.90
2019-04-06T02:24:40.797Z,99.90
2019-04-06T02:27:11.258Z,99.90
2019-04-06T02:29:41.793Z,99.90
2019-04-06T02:32:37.230Z,99.90
2019-04-06T02:35:17.838Z,99.90
2019-04-06T02:38:03.799Z,99.90
2019-04-06T02:40:45.620Z,99.90
2019-04-06T02:43:19.573Z,99.90
2019-04-06T02:45:49.993Z,99.90
2019-04-06T02:48:20.481Z,99.90
2019-04-06T02:50:50.976Z,99.90
2019-04-06T02:53:23.381Z,99.90
2019-04-06T02:55:53.904Z,99.90
2019-04-06T02:58:24.959Z,99.90
2019-04-06T03:00:55.665Z,99.90
2019-04-06T03:03:26.180Z,99.90
2019-04-06T03:05:56.590Z,99.90
2019-04-06T03:08:27.284Z,99.90
2019-04-06T03:10:57.748Z,99.90
2019-04-06T03:13:28.194Z,99.90
2019-04-06T03:15:58.990Z,99.90
2019-04-06T03:18:29.756Z,99.90
2019-04-06T03:21:00.260Z,99.90
2019-04-06T03:23:30.709Z,99.90
2019-04-06T03:26:01.235Z,99.90
2019-04-06T03:28:31.742Z,99.90
2019-04-06T03:31:02.653Z,99.90
2019-04-06T03:33:33.374Z,99.90
2019-04-06T03:36:03.878Z,99.90
2019-04-06T03:38:34.556Z,99.90
2019-04-06T03:41:05.226Z,99.90
2019-04-06T03:43:35.940Z,99.90
2019-04-06T03:46:06.362Z,99.90
2019-04-06T03:48:36.848Z,99.90
2019-04-06T03:51:08.294Z,99.90
2019-04-06T03:53:38.857Z,99.90
2019-04-06T03:56:09.299Z,99.90
2019-04-06T03:58:42.002Z,99.90
2019-04-06T04:01:12.390Z,99.90
2019-04-06T04:03:42.843Z,99.90
2019-04-06T04:06:13.471Z,99.90
2019-04-06T04:08:44.105Z,99.90
2019-04-06T04:11:14.858Z,99.90
2019-04-06T04:13:45.510Z,99.90
2019-04-06T04:16:16.281Z,99.90
2019-04-06T04:18:46.824Z,99.90
2019-04-06T04:21:17.742Z,99.90
2019-04-06T04:23:48.184Z,99.90
2019-04-06T04:26:18.680Z,99.90
2019-04-06T04:28:49.233Z,99.90
2019-04-06T04:31:19.819Z,99.90
2019-04-06T04:33:50.490Z,99.90
2019-04-06T04:36:21.244Z,99.90
2019-04-06T04:38:51.900Z,99.90
2019-04-06T04:41:22.416Z,99.90
2019-04-06T04:43:52.901Z,99.90
2019-04-06T04:46:23.662Z,99.90
2019-04-06T04:48:54.127Z,99.90
2019-04-06T04:51:24.944Z,99.90
2019-04-06T04:53:55.380Z,99.90
2019-04-06T04:56:25.981Z,99.90
2019-04-06T04:58:56.816Z,99.90
2019-04-06T05:01:27.668Z,99.90
2019-04-06T05:03:58.116Z,99.90
2019-04-06T05:06:29.063Z,99.90
2019-04-06T05:08:59.540Z,99.90
2019-04-06T05:11:29.998Z,99.90
2019-04-06T05:14:54.163Z,99.90
2019-04-06T05:17:24.632Z,99.90
2019-04-06T05:19:55.159Z,99.90
2019-04-06T05:22:25.934Z,99.90
2019-04-06T05:24:56.559Z,99.90
2019-04-06T05:27:27.343Z,99.90
2019-04-06T05:29:57.848Z,99.90
2019-04-06T05:32:28.708Z,99.90
2019-04-06T05:34:59.135Z,99.90
2019-04-06T05:37:29.674Z,99.90
2019-04-06T05:40:00.105Z,99.90
2019-04-06T05:42:31.215Z,99.90
2019-04-06T05:45:01.624Z,99.90
2019-04-06T05:47:32.417Z,99.90
2019-04-06T05:50:02.909Z,99.90
2019-04-06T05:52:33.752Z,99.90
2019-04-06T05:55:04.235Z,99.90
2019-04-06T05:57:37.080Z,99.90
2019-04-06T06:00:09.849Z,99.90
2019-04-06T06:02:41.364Z,99.90
2019-04-06T06:05:14.009Z,99.90
2019-04-06T06:07:44.439Z,99.90
2019-04-06T06:10:15.149Z,99.90
2019-04-06T06:12:45.607Z,99.90
2019-04-06T06:15:16.517Z,99.90
2019-04-06T06:17:47.037Z,99.90
2019-04-06T06:20:17.542Z,99.90
2019-04-06T06:22:48.137Z,99.90
2019-04-06T06:25:18.719Z,99.80
2019-04-06T06:27:49.180Z,99.30
2019-04-06T06:30:20.515Z,98.30
2019-04-06T06:32:51.097Z,96.00
2019-04-06T06:35:21.598Z,92.80
2019-04-06T06:37:52.239Z,89.60
2019-04-06T06:40:22.728Z,82.10
2019-04-06T06:42:53.206Z,79.30
2019-04-06T06:45:23.846Z,76.80
2019-04-06T06:47:54.378Z,73.00
2019-04-06T06:50:24.895Z,69.30
2019-04-06T06:52:55.661Z,66.10
2019-04-06T06:55:26.923Z,63.10
2019-04-06T06:57:57.924Z,60.60
2019-04-06T07:00:28.367Z,57.70
2019-04-06T07:02:58.982Z,55.70
2019-04-06T07:05:29.474Z,53.80
2019-04-06T07:07:59.972Z,52.50
2019-04-06T07:10:30.413Z,48.40
2019-04-06T07:13:00.910Z,48.50
2019-04-06T07:15:31.410Z,47.40
2019-04-06T07:18:02.006Z,43.90
2019-04-06T07:20:32.627Z,44.20
2019-04-06T07:23:03.165Z,41.80
2019-04-06T07:25:33.668Z,41.00
2019-04-06T07:28:04.143Z,41.70
2019-04-06T07:30:34.695Z,41.00
2019-04-06T07:33:05.696Z,37.70
2019-04-06T07:35:36.183Z,38.30
2019-04-06T07:38:06.776Z,38.90
2019-04-06T07:40:37.368Z,39.30
2019-04-06T07:43:08.137Z,39.20
2019-04-06T07:45:38.693Z,40.50
2019-04-06T07:48:09.507Z,40.10
2019-04-06T07:50:40.344Z,38.00
2019-04-06T07:53:10.929Z,36.50
2019-04-06T07:55:41.773Z,35.50
2019-04-06T07:58:12.208Z,35.30
2019-04-06T08:00:42.763Z,35.10
2019-04-06T08:03:13.737Z,34.80
2019-04-06T08:05:44.366Z,33.80
2019-04-06T08:08:15.000Z,34.10
2019-04-06T08:10:45.602Z,33.40
2019-04-06T08:13:16.275Z,32.60
2019-04-06T08:15:46.752Z,30.80
2019-04-06T08:18:17.384Z,31.80
2019-04-06T08:20:48.127Z,30.10
2019-04-06T08:23:18.732Z,29.80
2019-04-06T08:25:49.419Z,32.30
2019-04-06T08:28:19.980Z,33.90
2019-04-06T08:30:50.637Z,34.90
2019-04-06T08:33:21.274Z,35.50
2019-04-06T08:35:52.152Z,35.60
2019-04-06T08:38:22.665Z,34.30
2019-04-06T08:40:53.447Z,36.40
2019-04-06T08:43:23.985Z,36.20
2019-04-06T08:45:54.457Z,38.00
2019-04-06T08:48:25.025Z,38.10
2019-04-06T08:50:55.680Z,40.40
2019-04-06T08:53:26.408Z,40.60
2019-04-06T08:55:56.942Z,42.50
2019-04-06T08:58:27.778Z,42.80
2019-04-06T09:00:58.260Z,43.70
2019-04-06T09:03:29.203Z,38.10
2019-04-06T09:05:59.978Z,34.30
2019-04-06T09:08:30.946Z,32.00
2019-04-06T09:11:02.090Z,29.20
2019-04-06T09:13:32.771Z,28.50
2019-04-06T09:16:03.995Z,28.50
2019-04-06T09:18:34.776Z,28.90
2019-04-06T09:21:05.281Z,28.20
2019-04-06T09:23:35.998Z,27.80
2019-04-06T09:26:06.406Z,27.80
2019-04-06T09:28:36.993Z,26.60
2019-04-06T09:31:07.513Z,25.70
2019-04-06T09:33:38.221Z,26.00
2019-04-06T09:36:08.734Z,25.40
2019-04-06T09:38:39.249Z,26.40
2019-04-06T09:41:10.003Z,25.90
2019-04-06T09:43:40.459Z,26.30
2019-04-06T09:46:27.868Z,26.60
2019-04-06T09:49:17.459Z,27.10
2019-04-06T09:52:10.061Z,26.90
2019-04-06T09:55:02.925Z,27.20
2019-04-06T09:58:04.679Z,26.60
2019-04-06T10:00:57.537Z,26.70
2019-04-06T10:03:49.959Z,26.30
2019-04-06T10:06:36.552Z,25.60
2019-04-06T10:09:17.502Z,24.80
2019-04-06T10:12:10.146Z,25.60
2019-04-06T10:15:09.056Z,24.80
2019-04-06T10:17:47.392Z,24.50
2019-04-06T10:20:46.131Z,25.00
2019-04-06T10:23:41.876Z,25.00
2019-04-06T10:26:27.434Z,25.90
2019-04-06T10:29:26.404Z,26.80
2019-04-06T10:32:16.107Z,27.10
2019-04-06T10:35:06.030Z,28.10
2019-04-06T10:37:52.716Z,28.30
2019-04-06T10:40:40.786Z,28.30
2019-04-06T10:43:41.129Z,28.50
2019-04-06T10:46:30.565Z,28.50
2019-04-06T10:49:10.993Z,29.00
2019-04-06T10:51:55.688Z,28.70
2019-04-06T10:54:51.141Z,27.90
2019-04-06T10:57:40.191Z,28.00
2019-04-06T11:00:28.887Z,29.20
2019-04-06T11:03:21.412Z,29.80
2019-04-06T11:06:16.611Z,29.90
2019-04-06T11:09:12.360Z,29.70
2019-04-06T11:11:57.687Z,29.30
2019-04-06T11:14:52.896Z,29.70
2019-04-06T11:17:42.110Z,29.70
2019-04-06T11:20:41.620Z,30.40
2019-04-06T11:23:44.635Z,31.70
2019-04-06T11:26:34.228Z,33.70
2019-04-06T11:29:22.399Z,36.60
2019-04-06T11:31:59.982Z,37.70
2019-04-06T11:34:48.304Z,38.70
2019-04-06T11:37:36.291Z,39.80
2019-04-06T11:40:44.631Z,39.80
2019-04-06T11:43:30.751Z,41.10
2019-04-06T11:46:17.622Z,41.80
2019-04-06T11:49:03.666Z,42.40
2019-04-06T11:51:50.920Z,42.60
2019-04-06T11:54:46.544Z,43.50
2019-04-06T11:57:32.977Z,43.10
2019-04-06T12:00:26.824Z,43.30
2019-04-06T12:03:14.957Z,43.80
2019-04-06T12:06:03.289Z,43.40
2019-04-06T12:09:05.613Z,42.70
2019-04-06T12:12:01.076Z,43.70
2019-04-06T12:14:56.314Z,43.60
2019-04-06T12:17:50.235Z,43.00
2019-04-06T12:20:48.930Z,44.20
2019-04-06T12:23:41.612Z,45.20
2019-04-06T12:26:34.312Z,46.30
2019-04-06T12:29:23.035Z,45.10
2019-04-06T12:32:21.092Z,44.90
2019-04-06T12:35:06.673Z,44.30
2019-04-06T12:37:54.853Z,45.00
2019-04-06T12:40:59.223Z,45.80
2019-04-06T12:43:51.502Z,46.20
2019-04-06T12:46:39.859Z,44.40
2019-04-06T12:49:29.199Z,45.50
2019-04-06T12:52:21.641Z,44.30
2019-04-06T12:55:09.818Z,44.80
2019-04-06T12:57:59.173Z,46.50
2019-04-06T13:00:53.079Z,46.80
2019-04-06T13:03:41.442Z,48.60
2019-04-06T13:06:36.904Z,47.50
2019-04-06T13:09:33.931Z,48.30
2019-04-06T13:12:10.404Z,48.20
2019-04-06T13:15:06.505Z,48.90
2019-04-06T13:17:58.830Z,49.10
2019-04-06T13:20:46.266Z,48.70
2019-04-06T13:23:41.984Z,47.60
2019-04-06T13:26:32.786Z,48.30
2019-04-06T13:29:25.086Z,50.10
2019-04-06T13:32:07.898Z,49.10
2019-04-06T13:35:06.215Z,49.30
2019-04-06T13:37:55.757Z,50.40
2019-04-06T13:40:57.472Z,49.50
2019-04-06T13:43:35.843Z,50.10
2019-04-06T13:46:22.841Z,50.30
2019-04-06T13:49:13.454Z,50.70
2019-04-06T13:51:52.582Z,52.00
2019-04-06T13:54:45.088Z,51.50
2019-04-06T13:57:27.180Z,51.40
2019-04-06T14:00:15.603Z,50.50
2019-04-06T14:03:08.523Z,51.00
2019-04-06T14:06:09.336Z,50.50
2019-04-06T14:09:01.467Z,51.30
2019-04-06T14:12:03.383Z,50.50
2019-04-06T14:15:04.577Z,51.70
2019-04-06T14:18:06.000Z,52.10
2019-04-06T14:20:43.621Z,52.80
2019-04-06T14:23:31.830Z,52.90
2019-04-06T14:26:27.349Z,52.90
2019-04-06T14:29:06.266Z,53.20
2019-04-06T14:31:55.097Z,52.70
2019-04-06T14:34:34.039Z,53.10
2019-04-06T14:37:22.311Z,52.90
2019-04-06T14:40:10.592Z,52.80
2019-04-06T14:43:00.110Z,52.80
2019-04-06T14:45:55.932Z,52.70
2019-04-06T14:48:44.567Z,53.10
2019-04-06T14:51:37.046Z,53.10
2019-04-06T14:54:22.504Z,53.40
2019-04-06T14:57:12.324Z,52.70
2019-04-06T15:00:04.631Z,51.90
2019-04-06T15:03:09.084Z,52.20
2019-04-06T15:05:58.397Z,52.40
2019-04-06T15:08:46.691Z,52.70
2019-04-06T15:11:31.536Z,52.90
2019-04-06T15:14:33.241Z,52.70
2019-04-06T15:17:27.948Z,53.40
2019-04-06T15:20:23.685Z,52.80
2019-04-06T15:23:12.397Z,53.10
2019-04-06T15:26:00.478Z,52.20
2019-04-06T15:29:09.646Z,52.20
2019-04-06T15:31:59.516Z,52.00
2019-04-06T15:34:55.363Z,51.80
2019-04-06T15:37:43.663Z,52.30
2019-04-06T15:40:23.044Z,51.20
2019-04-06T15:43:19.289Z,51.40
2019-04-06T15:46:18.140Z,52.00
2019-04-06T15:49:02.598Z,52.20
2019-04-06T15:51:52.062Z,52.10
2019-04-06T15:54:44.718Z,52.50
2019-04-06T15:57:31.307Z,53.10
2019-04-06T16:00:08.245Z,53.20
2019-04-06T16:03:03.771Z,53.70
2019-04-06T16:05:47.777Z,53.40
2019-04-06T16:08:44.662Z,53.40
2019-04-06T16:11:33.981Z,55.10
2019-04-06T16:14:41.534Z,54.10
2019-04-06T16:17:16.803Z,53.10
2019-04-06T16:20:21.442Z,53.50
2019-04-06T16:23:11.129Z,53.60
2019-04-06T16:26:00.894Z,55.00
2019-04-06T16:28:40.307Z,55.20
2019-04-06T16:31:29.723Z,55.00
2019-04-06T16:34:19.054Z,54.20
2019-04-06T16:37:15.014Z,55.60
2019-04-06T16:40:22.668Z,56.70
2019-04-06T16:43:07.840Z,57.20
2019-04-06T16:46:15.347Z,57.60
2019-04-06T16:49:04.900Z,59.70
2019-04-06T16:51:54.276Z,58.90
2019-04-06T16:54:33.104Z,61.50
2019-04-06T16:57:34.954Z,63.20
2019-04-06T17:00:24.460Z,64.50
2019-04-06T17:03:22.138Z,65.40
2019-04-06T17:06:11.623Z,66.00
2019-04-06T17:08:52.839Z,67.60
2019-04-06T17:11:57.463Z,69.70
2019-04-06T17:14:52.914Z,69.70
2019-04-06T17:17:44.269Z,72.30
2019-04-06T17:20:33.443Z,72.70
2019-04-06T17:23:09.561Z,74.50
2019-04-06T17:25:49.773Z,75.00
2019-04-06T17:28:38.204Z,76.90
2019-04-06T17:31:21.202Z,78.00
2019-04-06T17:34:02.643Z,78.80
2019-04-06T17:36:58.028Z,80.30
2019-04-06T17:39:50.463Z,81.30
2019-04-06T17:42:45.928Z,82.50
2019-04-06T17:45:27.658Z,84.00
2019-04-06T17:48:23.277Z,83.80
2019-04-06T17:51:07.920Z,85.20
2019-04-06T17:54:03.335Z,86.00
2019-04-06T17:56:40.219Z,86.30
2019-04-06T17:59:25.773Z,87.90
2019-04-06T18:02:13.347Z,89.40
2019-04-06T18:05:21.697Z,90.40
2019-04-06T18:08:20.221Z,90.70
2019-04-06T18:11:12.988Z,91.30
2019-04-06T18:14:00.193Z,91.50
2019-04-06T18:16:35.721Z,92.10
2019-04-06T18:19:06.805Z,93.10
2019-04-06T18:21:37.358Z,93.10
2019-04-06T18:24:07.912Z,93.60
2019-04-06T18:26:38.395Z,94.10
2019-04-06T18:29:08.892Z,94.10
2019-04-06T18:32:16.457Z,94.50
2019-04-06T18:34:47.031Z,94.70
2019-04-06T18:37:36.827Z,95.00
2019-04-06T18:40:20.103Z,94.90
2019-04-06T18:42:50.801Z,95.50
2019-04-06T18:45:21.226Z,95.70
2019-04-06T18:47:51.957Z,96.10
2019-04-06T18:50:33.268Z,96.10
2019-04-06T18:52:55.549Z,96.50
2019-04-06T18:55:27.034Z,97.10
2019-04-06T18:58:08.679Z,97.80
2019-04-06T19:00:29.937Z,98.50
2019-04-06T19:03:10.940Z,98.90
2019-04-06T19:05:32.832Z,99.40
2019-04-06T19:08:03.400Z,99.50
2019-04-06T19:10:34.032Z,99.90
2019-04-06T19:13:04.594Z,99.80
2019-04-06T19:15:35.078Z,99.60
2019-04-06T19:18:05.649Z,99.90
2019-04-06T19:20:36.171Z,99.90
2019-04-06T19:23:07.107Z,99.90
2019-04-06T19:25:40.995Z,99.90
2019-04-06T19:28:11.972Z,99.90
2019-04-06T19:30:42.861Z,99.90
2019-04-06T19:33:23.367Z,99.90
2019-04-06T19:35:48.763Z,99.90
2019-04-06T19:38:19.424Z,99.90
2019-04-06T19:40:53.434Z,99.90
2019-04-06T19:43:24.156Z,99.90
2019-04-06T19:45:55.655Z,99.90
2019-04-06T19:48:26.248Z,99.90
2019-04-06T19:50:56.726Z,99.90
2019-04-06T19:53:27.203Z,99.90
2019-04-06T19:55:57.698Z,99.90
2019-04-06T19:58:28.376Z,99.90
2019-04-06T20:00:58.932Z,99.90
2019-04-06T20:03:36.001Z,99.90
2019-04-06T20:06:02.720Z,99.90
2019-04-06T20:08:33.292Z,99.90
2019-04-06T20:11:03.783Z,99.90
2019-04-06T20:13:34.424Z,99.90
2019-04-06T20:16:04.919Z,99.90
2019-04-06T20:18:35.789Z,99.90
2019-04-06T20:21:06.371Z,99.90
2019-04-06T20:23:37.366Z,99.90
2019-04-06T20:26:07.981Z,99.90
2019-04-06T20:28:39.013Z,99.90
2019-04-06T20:31:09.725Z,99.90
2019-04-06T20:33:48.155Z,99.90
2019-04-06T20:36:13.083Z,99.90
2019-04-06T20:38:43.607Z,99.90
2019-04-06T20:41:14.435Z,99.90
2019-04-06T20:43:45.022Z,99.90
2019-04-06T20:46:15.766Z,99.90
2019-04-06T20:48:46.589Z,99.90
2019-04-06T20:51:17.116Z,99.90
2019-04-06T20:53:47.667Z,99.90
2019-04-06T20:56:18.226Z,99.90
2019-04-06T20:58:49.131Z,99.90
2019-04-06T21:01:19.980Z,99.90
2019-04-06T21:03:59.659Z,99.90
2019-04-06T21:06:23.373Z,99.90
2019-04-06T21:08:53.994Z,99.90
2019-04-06T21:11:24.614Z,99.90
2019-04-06T21:13:55.200Z,99.90
2019-04-06T21:16:25.863Z,99.90
2019-04-06T21:18:57.926Z,99.90
2019-04-06T21:21:28.643Z,99.90
2019-04-06T21:23:59.412Z,99.90
2019-04-06T21:26:30.028Z,99.90
2019-04-06T21:29:00.469Z,99.90
2019-04-06T21:31:31.593Z,99.90
2019-04-06T21:34:10.403Z,99.90
2019-04-06T21:36:35.079Z,99.90
2019-04-06T21:39:07.442Z,99.90
2019-04-06T21:41:38.467Z,99.90
2019-04-06T21:44:08.951Z,99.90
2019-04-06T21:46:39.473Z,99.90
2019-04-06T21:49:10.131Z,99.90
2019-04-06T21:51:40.627Z,99.90
2019-04-06T21:54:11.115Z,99.90
2019-04-06T21:56:42.379Z,99.90
2019-04-06T21:59:15.295Z,99.90
2019-04-06T22:01:45.545Z,99.90
2019-04-06T22:04:23.606Z,99.90
2019-04-06T22:06:48.526Z,99.90
2019-04-06T22:09:20.307Z,99.90
2019-04-06T22:11:51.465Z,99.90
2019-04-06T22:14:22.767Z,99.90
2019-04-06T22:16:53.414Z,99.90
2019-04-06T22:19:25.236Z,99.90
2019-04-06T22:21:56.282Z,99.90
2019-04-06T22:24:26.781Z,99.90
2019-04-06T22:26:57.444Z,99.90
2019-04-06T22:29:28.675Z,99.90
2019-04-06T22:31:59.597Z,99.90
2019-04-06T22:34:39.410Z,99.90
2019-04-06T22:37:02.706Z,99.90
2019-04-06T22:39:33.322Z,99.90
2019-04-06T22:42:04.368Z,99.90
2019-04-06T22:44:35.322Z,99.90
2019-04-06T22:47:05.970Z,99.90
2019-04-06T22:49:36.582Z,99.90
2019-04-06T22:52:07.930Z,99.90
2019-04-06T22:54:38.772Z,99.90
2019-04-06T22:57:09.312Z,99.90
2019-04-06T22:59:40.401Z,99.90
2019-04-06T23:02:10.989Z,99.90
2019-04-06T23:04:51.007Z,99.90
2019-04-06T23:07:22.428Z,99.90
2019-04-06T23:09:53.133Z,99.90
2019-04-06T23:12:23.834Z,99.90
2019-04-06T23:14:54.432Z,99.90
2019-04-06T23:17:25.245Z,99.90
2019-04-06T23:19:55.714Z,99.90
2019-04-06T23:22:26.355Z,99.90
2019-04-06T23:24:56.853Z,99.90
2019-04-06T23:27:27.361Z,99.90
2019-04-06T23:29:58.769Z,99.90
2019-04-06T23:32:29.599Z,99.90
2019-04-06T23:35:02.252Z,99.90
2019-04-06T23:37:32.392Z,99.90
2019-04-06T23:40:02.884Z,99.90
2019-04-06T23:42:33.336Z,99.90
2019-04-06T23:45:04.746Z,99.90
2019-04-06T23:47:35.416Z,99.90
2019-04-06T23:50:06.743Z,99.90
2019-04-06T23:52:37.426Z,99.90
2019-04-06T23:55:08.429Z,99.90
2019-04-06T23:57:39.393Z,99.90
